Stadiongracht — PDBY — position and weather

sailwx.info

Track history (hours):
 
Tides and Currents Weather Stations Pressure Air Temp Water Temp Dewpoint Dewpoint Depression Visibility Wind Speed Wind Dir Waves Ship Positions

Stadiongracht

Last reported at 2019-May-24 01:30 UTC. Time now 2019-May-24 01:45 UTC.
Position N 29°52' W 093°56'.

Length 173 m; beam 26 m.

Type: Cargo ship. MMSI: 246466000.

Date/timePositionNaut miles runAvg speedWind from/ knotsBaromVisibWave heightAir tempDewpointWater temp
2019-May-24 01:30N 29°52' W 093°56'0 0.0
2019-May-24 01:00N 29°52' W 093°56'0 0.0
2019-May-24 00:30N 29°52' W 093°56'0 0.0
2019-May-24 00:00N 29°52' W 093°56'0 0.0
2019-May-23 23:30N 29°52' W 093°56'0 0.0
2019-May-23 23:00N 29°52' W 093°56'0 0.0
2019-May-23 22:30N 29°52' W 093°56'0 0.0
2019-May-23 22:00N 29°52' W 093°56'0 0.0
2019-May-23 21:30N 29°52' W 093°56'0 0.0
2019-May-23 21:00N 29°52' W 093°56'0 0.0
2019-May-23 20:30N 29°52' W 093°56'0 0.0
2019-May-23 20:00N 29°52' W 093°56'0 0.0
2019-May-23 19:30N 29°52' W 093°56'0 0.0
2019-May-23 19:01N 29°52' W 093°56'0 0.0
2019-May-23 18:31N 29°52' W 093°56'0 0.0
2019-May-23 18:01N 29°52' W 093°56'0 0.2
2019-May-23 17:31N 29°52' W 093°56'3 6.1
2019-May-23 17:00N 29°49' W 093°57'4 7.6
2019-May-23 16:30N 29°46' W 093°55'4 8.5
2019-May-23 16:01N 29°43' W 093°51'510.9
2019-May-23 15:31N 29°38' W 093°49'4 7.2
2019-May-23 15:00N 29°35' W 093°47'5 9.6
2019-May-23 14:31N 29°32' W 093°42'3613.0
2019-May-23 11:42N 28°57' W 093°30'  
2019-May-21 01:47N 25°24' W 079°60'412.4
2019-May-21 01:30N 25°27' W 079°59'612.2
2019-May-21 01:00N 25°34' W 079°59'612.0
2019-May-21 00:30N 25°39' W 079°59'611.8
2019-May-21 00:00N 25°45' W 079°58'611.5
2019-May-20 23:30N 25°51' W 079°58'611.5
2019-May-20 23:00N 25°57' W 079°57'611.5
2019-May-20 22:30N 26°03' W 079°56'611.5
2019-May-20 22:00N 26°08' W 079°56'611.5
2019-May-20 21:30N 26°14' W 079°55'611.7
2019-May-20 21:00N 26°20' W 079°54'611.8
2019-May-20 20:30N 26°26' W 079°54'611.8
2019-May-20 20:00N 26°32' W 079°53'612.1
2019-May-20 19:30N 26°38' W 079°52'712.2
2019-May-20 18:54N 26°45' W 079°52'512.0
2019-May-20 18:30N 26°50' W 079°51'266 6.7
2019-May-19 02:38N 31°16' W 079°56'6512.7
2019-May-18 21:32N 31°59' W 078°60'012.9
2019-May-18 21:30N 31°59' W 078°59'612.4
2019-May-18 21:00N 32°04' W 078°54'912.9
2019-May-18 20:16N 32°10' W 078°46'412.5
2019-May-18 19:58N 32°13' W 078°43'38812.0
2019-May-17 11:42N 37°46' W 074°40'314.5
2019-May-17 11:30N 37°49' W 074°40'714.4
2019-May-17 11:00N 37°56' W 074°40'714.2
2019-May-17 10:30N 38°03' W 074°41'714.2
2019-May-17 10:00N 38°10' W 074°41'714.0
2019-May-17 09:30N 38°17' W 074°42'713.8
2019-May-17 09:00N 38°24' W 074°43'713.7
2019-May-17 08:30N 38°30' W 074°47'714.7
2019-May-17 08:01N 38°36' W 074°52'815.4
2019-May-17 07:30N 38°43' W 074°58'815.9
2019-May-17 07:01N 38°49' W 075°04'612.9
2019-May-17 06:30N 38°55' W 075°06'815.8
2019-May-17 06:01N 39°03' W 075°10'816.3
2019-May-17 05:31N 39°09' W 075°15'816.7
2019-May-17 05:01N 39°16' W 075°21'816.5
2019-May-17 04:31N 39°23' W 075°28'714.8
2019-May-17 04:01N 39°29' W 075°34'713.8
2019-May-17 03:30N 39°36' W 075°34'5 9.5
2019-May-17 03:00N 39°40' W 075°32'611.1
2019-May-17 02:30N 39°45' W 075°29'5 9.6
2019-May-17 02:00N 39°48' W 075°25'510.2
2019-May-17 01:30N 39°51' W 075°19'5 9.3
2019-May-17 01:00N 39°52' W 075°13'4 8.0
2019-May-17 00:31N 39°54' W 075°08'1 2.9
2019-May-17 00:00N 39°55' W 075°08'0 0.0
2019-May-16 23:30N 39°55' W 075°08'0 0.0
2019-May-16 22:59N 39°55' W 075°08'0 0.0
2019-May-16 22:29N 39°55' W 075°08'0 0.0
2019-May-16 21:59N 39°55' W 075°08'0 0.0
2019-May-16 21:29N 39°55' W 075°08'0 0.0
2019-May-16 20:59N 39°55' W 075°08'0 0.0
2019-May-16 20:29N 39°55' W 075°08'0 0.0
2019-May-16 19:59N 39°55' W 075°08'0 0.0
2019-May-16 19:29N 39°55' W 075°08'0 0.0
2019-May-16 18:59N 39°55' W 075°08'0 0.0
2019-May-16 18:29N 39°55' W 075°08'0 0.0
2019-May-16 17:59N 39°55' W 075°08'0 0.0
2019-May-16 17:29N 39°55' W 075°08'0 0.0
2019-May-16 16:59N 39°55' W 075°08'0 0.0
2019-May-16 16:29N 39°55' W 075°08'0 0.0
2019-May-16 15:59N 39°55' W 075°08'0 0.0
2019-May-16 15:29N 39°55' W 075°08'0 0.0
2019-May-16 14:59N 39°55' W 075°08'0 0.0
2019-May-16 14:29N 39°55' W 075°08'0 0.0
2019-May-16 13:59N 39°55' W 075°08'0 0.0
2019-May-16 13:29N 39°55' W 075°08'0 0.0
2019-May-16 12:59N 39°55' W 075°08'0 0.0
2019-May-16 12:29N 39°55' W 075°08'0 0.0
2019-May-16 11:59N 39°55' W 075°08'0 0.0
2019-May-16 11:29N 39°55' W 075°08'0 0.0
2019-May-16 10:59N 39°55' W 075°08'0 0.0
2019-May-16 10:29N 39°55' W 075°08'0 0.0
2019-May-16 09:59N 39°55' W 075°08'0 0.0
2019-May-16 09:29N 39°55' W 075°08'0 0.0
2019-May-16 08:59N 39°55' W 075°08'0 0.0
2019-May-16 08:29N 39°55' W 075°08'0 0.0
2019-May-16 07:58N 39°55' W 075°08'0 0.0
2019-May-16 07:28N 39°55' W 075°08'0 0.0
2019-May-16 06:58N 39°55' W 075°08'0 0.0
2019-May-16 06:28N 39°55' W 075°08'0 0.0
2019-May-16 05:59N 39°55' W 075°08'0 0.0
2019-May-16 05:28N 39°55' W 075°08'0 0.0
2019-May-16 04:58N 39°55' W 075°08'0 0.0
2019-May-16 04:28N 39°55' W 075°08'0 0.0
2019-May-16 03:58N 39°55' W 075°08'0 0.0
2019-May-16 03:28N 39°55' W 075°08'0 0.0
2019-May-16 02:58N 39°55' W 075°08'0 0.0
2019-May-16 02:28N 39°55' W 075°08'0 0.0
2019-May-16 01:58N 39°55' W 075°08'0 0.0
2019-May-16 01:28N 39°55' W 075°08'0 0.0
2019-May-16 00:58N 39°55' W 075°08'0 0.0
2019-May-16 00:28N 39°55' W 075°08'0 0.0
2019-May-15 23:58N 39°55' W 075°08'0 0.0
2019-May-15 23:28N 39°55' W 075°08'0 0.0
2019-May-15 22:58N 39°55' W 075°08'0 0.0
2019-May-15 22:28N 39°55' W 075°08'0 0.0
2019-May-15 21:58N 39°55' W 075°08'0 0.0
2019-May-15 21:28N 39°55' W 075°08'0 0.0
2019-May-15 20:58N 39°55' W 075°08'0 0.0
2019-May-15 20:28N 39°55' W 075°08'0 0.0
2019-May-15 19:58N 39°55' W 075°08'0 0.0
2019-May-15 19:28N 39°55' W 075°08'0 0.0
2019-May-15 18:58N 39°55' W 075°08'0 0.0
2019-May-15 18:28N 39°55' W 075°08'0 0.0
2019-May-15 17:58N 39°55' W 075°08'0 0.0
2019-May-15 17:28N 39°55' W 075°08'0 0.0
2019-May-15 16:58N 39°55' W 075°08'0 0.0
2019-May-15 16:28N 39°55' W 075°08'0 0.0
2019-May-15 15:58N 39°55' W 075°08'0 0.0
2019-May-15 15:28N 39°55' W 075°08'0 0.0
2019-May-15 14:58N 39°55' W 075°08'0 0.0
2019-May-15 14:28N 39°55' W 075°08'0 0.0
2019-May-15 13:58N 39°55' W 075°08'0 0.0
2019-May-15 13:28N 39°55' W 075°08'0 0.0
2019-May-15 12:58N 39°55' W 075°08'0 0.0
2019-May-15 12:28N 39°55' W 075°08'0 0.0
2019-May-15 11:58N 39°55' W 075°08'0 0.0
2019-May-15 11:28N 39°55' W 075°08'0 0.0
2019-May-15 10:58N 39°55' W 075°08'0 0.0
2019-May-15 10:28N 39°55' W 075°08'0 0.0
2019-May-15 09:58N 39°55' W 075°08'0 0.0
2019-May-15 09:28N 39°55' W 075°08'0 0.0
2019-May-15 08:58N 39°55' W 075°08'0 0.0
2019-May-15 08:28N 39°55' W 075°08'0 0.0
2019-May-15 07:58N 39°55' W 075°08'0 0.0
2019-May-15 07:28N 39°55' W 075°08'0 0.0
2019-May-15 06:58N 39°55' W 075°08'0 0.0
2019-May-15 06:28N 39°55' W 075°08'0 0.0
2019-May-15 05:58N 39°55' W 075°08'0 0.0
2019-May-15 05:28N 39°55' W 075°08'0 0.0
2019-May-15 04:58N 39°55' W 075°08'0 0.0
2019-May-15 04:28N 39°55' W 075°08'0 0.0
2019-May-15 03:58N 39°55' W 075°08'0 0.0
2019-May-15 03:28N 39°55' W 075°08'0 0.0
2019-May-15 02:58N 39°55' W 075°08'0 0.0
2019-May-15 02:28N 39°55' W 075°08'0 0.0
2019-May-15 01:58N 39°55' W 075°08'0 0.0
2019-May-15 01:28N 39°55' W 075°08'0 0.0
2019-May-15 00:58N 39°55' W 075°08'0 0.0
2019-May-15 00:28N 39°55' W 075°08'0 0.0
2019-May-14 23:55N 39°55' W 075°08'0 0.0
2019-May-14 23:25N 39°55' W 075°08'0 0.0
2019-May-14 22:58N 39°55' W 075°08'0 0.0
2019-May-14 22:28N 39°55' W 075°08'0 0.0
2019-May-14 21:58N 39°55' W 075°08'0 0.0
2019-May-14 21:28N 39°55' W 075°08'0 0.0
2019-May-14 20:58N 39°55' W 075°08'0 0.0
2019-May-14 20:28N 39°55' W 075°08'0 0.0
2019-May-14 20:00N 39°55' W 075°08'0 0.0
2019-May-14 19:30N 39°55' W 075°08'0 0.0
2019-May-14 19:00N 39°55' W 075°08'0 0.0
2019-May-14 18:27N 39°55' W 075°08'0 0.0
2019-May-14 18:00N 39°55' W 075°08'0 0.0
2019-May-14 17:30N 39°55' W 075°08'0 0.0
2019-May-14 17:00N 39°55' W 075°08'0 0.0
2019-May-14 16:30N 39°55' W 075°08'0 0.0
2019-May-14 16:00N 39°55' W 075°08'0 0.0
2019-May-14 15:30N 39°55' W 075°08'0 0.4
2019-May-14 15:01N 39°55' W 075°08'2 4.2
2019-May-14 14:31N 39°53' W 075°09'4 7.6
2019-May-14 14:00N 39°52' W 075°13'5 9.8
2019-May-14 13:30N 39°51' W 075°20'510.7
2019-May-14 13:00N 39°48' W 075°25'611.5
2019-May-14 12:31N 39°44' W 075°30'611.8
2019-May-14 12:00N 39°38' W 075°34'611.5
2019-May-14 11:30N 39°33' W 075°33'714.4
2019-May-14 11:00N 39°25' W 075°31'816.3
2019-May-14 10:30N 39°19' W 075°24'816.1
2019-May-14 10:00N 39°13' W 075°18'815.3
2019-May-14 09:30N 39°07' W 075°13'815.1
2019-May-14 09:01N 38°60' W 075°08'  
Track history (hours):
 
Tides and Currents Weather Stations Pressure Air Temp Water Temp Dewpoint Dewpoint Depression Visibility Wind Speed Wind Dir Waves Ship Positions

Stadiongracht

Last reported at 2019-May-24 01:30 UTC. Time now 2019-May-24 01:45 UTC.
Position N 29°52' W 093°56'.

Length 173 m; beam 26 m.

Type: Cargo ship. MMSI: 246466000.

Date/timePositionNaut miles runAvg speedWind from/ knotsBaromVisibWave heightAir tempDewpointWater temp
2019-May-24 01:30N 29°52' W 093°56'0 0.0
2019-May-24 01:00N 29°52' W 093°56'0 0.0
2019-May-24 00:30N 29°52' W 093°56'0 0.0
2019-May-24 00:00N 29°52' W 093°56'0 0.0
2019-May-23 23:30N 29°52' W 093°56'0 0.0
2019-May-23 23:00N 29°52' W 093°56'0 0.0
2019-May-23 22:30N 29°52' W 093°56'0 0.0
2019-May-23 22:00N 29°52' W 093°56'0 0.0
2019-May-23 21:30N 29°52' W 093°56'0 0.0
2019-May-23 21:00N 29°52' W 093°56'0 0.0
2019-May-23 20:30N 29°52' W 093°56'0 0.0
2019-May-23 20:00N 29°52' W 093°56'0 0.0
2019-May-23 19:30N 29°52' W 093°56'0 0.0
2019-May-23 19:01N 29°52' W 093°56'0 0.0
2019-May-23 18:31N 29°52' W 093°56'0 0.0
2019-May-23 18:01N 29°52' W 093°56'0 0.2
2019-May-23 17:31N 29°52' W 093°56'3 6.1
2019-May-23 17:00N 29°49' W 093°57'4 7.6
2019-May-23 16:30N 29°46' W 093°55'4 8.5
2019-May-23 16:01N 29°43' W 093°51'510.9
2019-May-23 15:31N 29°38' W 093°49'4 7.2
2019-May-23 15:00N 29°35' W 093°47'5 9.6
2019-May-23 14:31N 29°32' W 093°42'3613.0
2019-May-23 11:42N 28°57' W 093°30'  
2019-May-21 01:47N 25°24' W 079°60'412.4
2019-May-21 01:30N 25°27' W 079°59'612.2
2019-May-21 01:00N 25°34' W 079°59'612.0
2019-May-21 00:30N 25°39' W 079°59'611.8
2019-May-21 00:00N 25°45' W 079°58'611.5
2019-May-20 23:30N 25°51' W 079°58'611.5
2019-May-20 23:00N 25°57' W 079°57'611.5
2019-May-20 22:30N 26°03' W 079°56'611.5
2019-May-20 22:00N 26°08' W 079°56'611.5
2019-May-20 21:30N 26°14' W 079°55'611.7
2019-May-20 21:00N 26°20' W 079°54'611.8
2019-May-20 20:30N 26°26' W 079°54'611.8
2019-May-20 20:00N 26°32' W 079°53'612.1
2019-May-20 19:30N 26°38' W 079°52'712.2
2019-May-20 18:54N 26°45' W 079°52'512.0
2019-May-20 18:30N 26°50' W 079°51'266 6.7
2019-May-19 02:38N 31°16' W 079°56'6512.7
2019-May-18 21:32N 31°59' W 078°60'012.9
2019-May-18 21:30N 31°59' W 078°59'612.4
2019-May-18 21:00N 32°04' W 078°54'912.9
2019-May-18 20:16N 32°10' W 078°46'412.5
2019-May-18 19:58N 32°13' W 078°43'38812.0
2019-May-17 11:42N 37°46' W 074°40'314.5
2019-May-17 11:30N 37°49' W 074°40'714.4
2019-May-17 11:00N 37°56' W 074°40'714.2
2019-May-17 10:30N 38°03' W 074°41'714.2
2019-May-17 10:00N 38°10' W 074°41'714.0
2019-May-17 09:30N 38°17' W 074°42'713.8
2019-May-17 09:00N 38°24' W 074°43'713.7
2019-May-17 08:30N 38°30' W 074°47'714.7
2019-May-17 08:01N 38°36' W 074°52'815.4
2019-May-17 07:30N 38°43' W 074°58'815.9
2019-May-17 07:01N 38°49' W 075°04'612.9
2019-May-17 06:30N 38°55' W 075°06'815.8
2019-May-17 06:01N 39°03' W 075°10'816.3
2019-May-17 05:31N 39°09' W 075°15'816.7
2019-May-17 05:01N 39°16' W 075°21'816.5
2019-May-17 04:31N 39°23' W 075°28'714.8
2019-May-17 04:01N 39°29' W 075°34'713.8
2019-May-17 03:30N 39°36' W 075°34'5 9.5
2019-May-17 03:00N 39°40' W 075°32'611.1
2019-May-17 02:30N 39°45' W 075°29'5 9.6
2019-May-17 02:00N 39°48' W 075°25'510.2
2019-May-17 01:30N 39°51' W 075°19'5 9.3
2019-May-17 01:00N 39°52' W 075°13'4 8.0
2019-May-17 00:31N 39°54' W 075°08'1 2.9
2019-May-17 00:00N 39°55' W 075°08'0 0.0
2019-May-16 23:30N 39°55' W 075°08'0 0.0
2019-May-16 22:59N 39°55' W 075°08'0 0.0
2019-May-16 22:29N 39°55' W 075°08'0 0.0
2019-May-16 21:59N 39°55' W 075°08'0 0.0
2019-May-16 21:29N 39°55' W 075°08'0 0.0
2019-May-16 20:59N 39°55' W 075°08'0 0.0
2019-May-16 20:29N 39°55' W 075°08'0 0.0
2019-May-16 19:59N 39°55' W 075°08'0 0.0
2019-May-16 19:29N 39°55' W 075°08'0 0.0
2019-May-16 18:59N 39°55' W 075°08'0 0.0
2019-May-16 18:29N 39°55' W 075°08'0 0.0
2019-May-16 17:59N 39°55' W 075°08'0 0.0
2019-May-16 17:29N 39°55' W 075°08'0 0.0
2019-May-16 16:59N 39°55' W 075°08'0 0.0
2019-May-16 16:29N 39°55' W 075°08'0 0.0
2019-May-16 15:59N 39°55' W 075°08'0 0.0
2019-May-16 15:29N 39°55' W 075°08'0 0.0
2019-May-16 14:59N 39°55' W 075°08'0 0.0
2019-May-16 14:29N 39°55' W 075°08'0 0.0
2019-May-16 13:59N 39°55' W 075°08'0 0.0
2019-May-16 13:29N 39°55' W 075°08'0 0.0
2019-May-16 12:59N 39°55' W 075°08'0 0.0
2019-May-16 12:29N 39°55' W 075°08'0 0.0
2019-May-16 11:59N 39°55' W 075°08'0 0.0
2019-May-16 11:29N 39°55' W 075°08'0 0.0
2019-May-16 10:59N 39°55' W 075°08'0 0.0
2019-May-16 10:29N 39°55' W 075°08'0 0.0
2019-May-16 09:59N 39°55' W 075°08'0 0.0
2019-May-16 09:29N 39°55' W 075°08'0 0.0
2019-May-16 08:59N 39°55' W 075°08'0 0.0
2019-May-16 08:29N 39°55' W 075°08'0 0.0
2019-May-16 07:58N 39°55' W 075°08'0 0.0
2019-May-16 07:28N 39°55' W 075°08'0 0.0
2019-May-16 06:58N 39°55' W 075°08'0 0.0
2019-May-16 06:28N 39°55' W 075°08'0 0.0
2019-May-16 05:59N 39°55' W 075°08'0 0.0
2019-May-16 05:28N 39°55' W 075°08'0 0.0
2019-May-16 04:58N 39°55' W 075°08'0 0.0
2019-May-16 04:28N 39°55' W 075°08'0 0.0
2019-May-16 03:58N 39°55' W 075°08'0 0.0
2019-May-16 03:28N 39°55' W 075°08'0 0.0
2019-May-16 02:58N 39°55' W 075°08'0 0.0
2019-May-16 02:28N 39°55' W 075°08'0 0.0
2019-May-16 01:58N 39°55' W 075°08'0 0.0
2019-May-16 01:28N 39°55' W 075°08'0 0.0
2019-May-16 00:58N 39°55' W 075°08'0 0.0
2019-May-16 00:28N 39°55' W 075°08'0 0.0
2019-May-15 23:58N 39°55' W 075°08'0 0.0
2019-May-15 23:28N 39°55' W 075°08'0 0.0
2019-May-15 22:58N 39°55' W 075°08'0 0.0
2019-May-15 22:28N 39°55' W 075°08'0 0.0
2019-May-15 21:58N 39°55' W 075°08'0 0.0
2019-May-15 21:28N 39°55' W 075°08'0 0.0
2019-May-15 20:58N 39°55' W 075°08'0 0.0
2019-May-15 20:28N 39°55' W 075°08'0 0.0
2019-May-15 19:58N 39°55' W 075°08'0 0.0
2019-May-15 19:28N 39°55' W 075°08'0 0.0
2019-May-15 18:58N 39°55' W 075°08'0 0.0
2019-May-15 18:28N 39°55' W 075°08'0 0.0
2019-May-15 17:58N 39°55' W 075°08'0 0.0
2019-May-15 17:28N 39°55' W 075°08'0 0.0
2019-May-15 16:58N 39°55' W 075°08'0 0.0
2019-May-15 16:28N 39°55' W 075°08'0 0.0
2019-May-15 15:58N 39°55' W 075°08'0 0.0
2019-May-15 15:28N 39°55' W 075°08'0 0.0
2019-May-15 14:58N 39°55' W 075°08'0 0.0
2019-May-15 14:28N 39°55' W 075°08'0 0.0
2019-May-15 13:58N 39°55' W 075°08'0 0.0
2019-May-15 13:28N 39°55' W 075°08'0 0.0
2019-May-15 12:58N 39°55' W 075°08'0 0.0
2019-May-15 12:28N 39°55' W 075°08'0 0.0
2019-May-15 11:58N 39°55' W 075°08'0 0.0
2019-May-15 11:28N 39°55' W 075°08'0 0.0
2019-May-15 10:58N 39°55' W 075°08'0 0.0
2019-May-15 10:28N 39°55' W 075°08'0 0.0
2019-May-15 09:58N 39°55' W 075°08'0 0.0
2019-May-15 09:28N 39°55' W 075°08'0 0.0
2019-May-15 08:58N 39°55' W 075°08'0 0.0
2019-May-15 08:28N 39°55' W 075°08'0 0.0
2019-May-15 07:58N 39°55' W 075°08'0 0.0
2019-May-15 07:28N 39°55' W 075°08'0 0.0
2019-May-15 06:58N 39°55' W 075°08'0 0.0
2019-May-15 06:28N 39°55' W 075°08'0 0.0
2019-May-15 05:58N 39°55' W 075°08'0 0.0
2019-May-15 05:28N 39°55' W 075°08'0 0.0
2019-May-15 04:58N 39°55' W 075°08'0 0.0
2019-May-15 04:28N 39°55' W 075°08'0 0.0
2019-May-15 03:58N 39°55' W 075°08'0 0.0
2019-May-15 03:28N 39°55' W 075°08'0 0.0
2019-May-15 02:58N 39°55' W 075°08'0 0.0
2019-May-15 02:28N 39°55' W 075°08'0 0.0
2019-May-15 01:58N 39°55' W 075°08'0 0.0
2019-May-15 01:28N 39°55' W 075°08'0 0.0
2019-May-15 00:58N 39°55' W 075°08'0 0.0
2019-May-15 00:28N 39°55' W 075°08'0 0.0
2019-May-14 23:55N 39°55' W 075°08'0 0.0
2019-May-14 23:25N 39°55' W 075°08'0 0.0
2019-May-14 22:58N 39°55' W 075°08'0 0.0
2019-May-14 22:28N 39°55' W 075°08'0 0.0
2019-May-14 21:58N 39°55' W 075°08'0 0.0
2019-May-14 21:28N 39°55' W 075°08'0 0.0
2019-May-14 20:58N 39°55' W 075°08'0 0.0
2019-May-14 20:28N 39°55' W 075°08'0 0.0
2019-May-14 20:00N 39°55' W 075°08'0 0.0
2019-May-14 19:30N 39°55' W 075°08'0 0.0
2019-May-14 19:00N 39°55' W 075°08'0 0.0
2019-May-14 18:27N 39°55' W 075°08'0 0.0
2019-May-14 18:00N 39°55' W 075°08'0 0.0
2019-May-14 17:30N 39°55' W 075°08'0 0.0
2019-May-14 17:00N 39°55' W 075°08'0 0.0
2019-May-14 16:30N 39°55' W 075°08'0 0.0
2019-May-14 16:00N 39°55' W 075°08'0 0.0
2019-May-14 15:30N 39°55' W 075°08'0 0.4
2019-May-14 15:01N 39°55' W 075°08'2 4.2
2019-May-14 14:31N 39°53' W 075°09'4 7.6
2019-May-14 14:00N 39°52' W 075°13'5 9.8
2019-May-14 13:30N 39°51' W 075°20'510.7
2019-May-14 13:00N 39°48' W 075°25'611.5
2019-May-14 12:31N 39°44' W 075°30'611.8
2019-May-14 12:00N 39°38' W 075°34'611.5
2019-May-14 11:30N 39°33' W 075°33'714.4
2019-May-14 11:00N 39°25' W 075°31'816.3
2019-May-14 10:30N 39°19' W 075°24'816.1
2019-May-14 10:00N 39°13' W 075°18'815.3
2019-May-14 09:30N 39°07' W 075°13'815.1
2019-May-14 09:01N 38°60' W 075°08'  

Dump ship's entire track history